sensor_id;sensor_type;location;lat;lon;timestamp;P1;durP1;ratioP1;P2;durP2;ratioP2
19585;SDS011;9939;49.246;9.106;2022-10-22T00:00:39;8.30;;;3.40;;
19585;SDS011;9939;49.246;9.106;2022-10-22T00:03:06;9.30;;;3.00;;
19585;SDS011;9939;49.246;9.106;2022-10-22T00:05:33;6.60;;;2.97;;
19585;SDS011;9939;49.246;9.106;2022-10-22T00:08:00;9.20;;;3.00;;
19585;SDS011;9939;49.246;9.106;2022-10-22T00:10:27;6.27;;;3.30;;
19585;SDS011;9939;49.246;9.106;2022-10-22T00:12:54;9.33;;;3.70;;
19585;SDS011;9939;49.246;9.106;2022-10-22T00:15:21;7.17;;;3.53;;
19585;SDS011;9939;49.246;9.106;2022-10-22T00:17:48;6.17;;;3.83;;
19585;SDS011;9939;49.246;9.106;2022-10-22T00:20:15;9.37;;;4.00;;
19585;SDS011;9939;49.246;9.106;2022-10-22T00:22:42;8.83;;;4.00;;
19585;SDS011;9939;49.246;9.106;2022-10-22T00:25:09;11.97;;;4.80;;
19585;SDS011;9939;49.246;9.106;2022-10-22T00:27:36;9.90;;;3.90;;
19585;SDS011;9939;49.246;9.106;2022-10-22T00:30:04;8.03;;;3.83;;
19585;SDS011;9939;49.246;9.106;2022-10-22T00:32:31;10.03;;;4.13;;
19585;SDS011;9939;49.246;9.106;2022-10-22T00:34:58;9.87;;;4.23;;
19585;SDS011;9939;49.246;9.106;2022-10-22T00:37:25;14.10;;;4.30;;
19585;SDS011;9939;49.246;9.106;2022-10-22T00:39:52;10.60;;;5.03;;
19585;SDS011;9939;49.246;9.106;2022-10-22T00:42:20;13.70;;;6.50;;
19585;SDS011;9939;49.246;9.106;2022-10-22T00:47:38;12.63;;;6.03;;
19585;SDS011;9939;49.246;9.106;2022-10-22T00:50:29;9.60;;;5.07;;
19585;SDS011;9939;49.246;9.106;2022-10-22T00:53:01;12.53;;;5.67;;
19585;SDS011;9939;49.246;9.106;2022-10-22T00:55:29;12.50;;;5.77;;
19585;SDS011;9939;49.246;9.106;2022-10-22T00:57:58;8.17;;;4.47;;
19585;SDS011;9939;49.246;9.106;2022-10-22T01:00:26;9.20;;;5.00;;
19585;SDS011;9939;49.246;9.106;2022-10-22T01:02:53;14.50;;;4.87;;
19585;SDS011;9939;49.246;9.106;2022-10-22T01:05:21;9.47;;;4.93;;
19585;SDS011;9939;49.246;9.106;2022-10-22T01:07:51;9.17;;;5.03;;
19585;SDS011;9939;49.246;9.106;2022-10-22T01:16:29;11.70;;;4.73;;
19585;SDS011;9939;49.246;9.106;2022-10-22T01:21:49;15.27;;;5.00;;
19585;SDS011;9939;49.246;9.106;2022-10-22T01:29:51;9.93;;;4.67;;
19585;SDS011;9939;49.246;9.106;2022-10-22T01:32:24;12.63;;;5.00;;
19585;SDS011;9939;49.246;9.106;2022-10-22T01:35:03;14.90;;;5.23;;
19585;SDS011;9939;49.246;9.106;2022-10-22T01:37:35;13.53;;;5.07;;
19585;SDS011;9939;49.246;9.106;2022-10-22T01:40:23;15.40;;;5.50;;
19585;SDS011;9939;49.246;9.106;2022-10-22T01:42:58;10.03;;;5.23;;
19585;SDS011;9939;49.246;9.106;2022-10-22T01:45:32;9.27;;;4.87;;
19585;SDS011;9939;49.246;9.106;2022-10-22T02:04:45;8.30;;;4.57;;
19585;SDS011;9939;49.246;9.106;2022-10-22T02:07:22;11.60;;;4.80;;
19585;SDS011;9939;49.246;9.106;2022-10-22T02:09:52;11.60;;;5.43;;
19585;SDS011;9939;49.246;9.106;2022-10-22T02:12:21;12.50;;;6.17;;
19585;SDS011;9939;49.246;9.106;2022-10-22T02:14:50;7.77;;;4.60;;
19585;SDS011;9939;49.246;9.106;2022-10-22T02:17:20;12.23;;;5.10;;
19585;SDS011;9939;49.246;9.106;2022-10-22T02:19:58;21.17;;;5.03;;
19585;SDS011;9939;49.246;9.106;2022-10-22T02:22:28;11.87;;;5.30;;
19585;SDS011;9939;49.246;9.106;2022-10-22T02:24:55;8.70;;;4.50;;
19585;SDS011;9939;49.246;9.106;2022-10-22T02:27:29;9.30;;;4.87;;
19585;SDS011;9939;49.246;9.106;2022-10-22T02:30:06;11.63;;;4.77;;
19585;SDS011;9939;49.246;9.106;2022-10-22T02:32:39;13.67;;;4.73;;
19585;SDS011;9939;49.246;9.106;2022-10-22T02:35:09;12.03;;;5.53;;
19585;SDS011;9939;49.246;9.106;2022-10-22T02:37:39;9.67;;;4.77;;
19585;SDS011;9939;49.246;9.106;2022-10-22T02:40:07;9.00;;;3.93;;
19585;SDS011;9939;49.246;9.106;2022-10-22T02:42:35;7.77;;;3.70;;
19585;SDS011;9939;49.246;9.106;2022-10-22T02:45:04;11.50;;;4.00;;
19585;SDS011;9939;49.246;9.106;2022-10-22T02:47:31;8.77;;;4.63;;
19585;SDS011;9939;49.246;9.106;2022-10-22T02:49:58;10.90;;;4.37;;
19585;SDS011;9939;49.246;9.106;2022-10-22T02:52:25;12.40;;;4.83;;
19585;SDS011;9939;49.246;9.106;2022-10-22T02:54:53;9.23;;;3.80;;
19585;SDS011;9939;49.246;9.106;2022-10-22T02:57:20;15.17;;;4.30;;
19585;SDS011;9939;49.246;9.106;2022-10-22T02:59:47;11.23;;;3.70;;
19585;SDS011;9939;49.246;9.106;2022-10-22T03:02:14;9.03;;;4.13;;
19585;SDS011;9939;49.246;9.106;2022-10-22T03:04:42;13.03;;;4.27;;
19585;SDS011;9939;49.246;9.106;2022-10-22T03:07:09;7.33;;;4.17;;
19585;SDS011;9939;49.246;9.106;2022-10-22T03:09:35;10.40;;;3.83;;
19585;SDS011;9939;49.246;9.106;2022-10-22T03:12:02;8.20;;;3.53;;
19585;SDS011;9939;49.246;9.106;2022-10-22T03:14:30;12.70;;;3.70;;
19585;SDS011;9939;49.246;9.106;2022-10-22T03:16:57;8.20;;;2.70;;
19585;SDS011;9939;49.246;9.106;2022-10-22T03:19:24;4.77;;;2.43;;
19585;SDS011;9939;49.246;9.106;2022-10-22T03:22:01;5.23;;;2.43;;
19585;SDS011;9939;49.246;9.106;2022-10-22T03:24:35;6.37;;;2.10;;
19585;SDS011;9939;49.246;9.106;2022-10-22T03:27:05;6.73;;;1.60;;
19585;SDS011;9939;49.246;9.106;2022-10-22T03:29:32;5.33;;;1.97;;
19585;SDS011;9939;49.246;9.106;2022-10-22T03:32:02;8.27;;;1.73;;
19585;SDS011;9939;49.246;9.106;2022-10-22T03:34:29;7.40;;;1.90;;
19585;SDS011;9939;49.246;9.106;2022-10-22T03:36:57;2.80;;;1.63;;
19585;SDS011;9939;49.246;9.106;2022-10-22T03:39:25;4.43;;;1.50;;
19585;SDS011;9939;49.246;9.106;2022-10-22T03:41:54;4.33;;;1.30;;
19585;SDS011;9939;49.246;9.106;2022-10-22T03:44:22;4.77;;;1.30;;
19585;SDS011;9939;49.246;9.106;2022-10-22T03:46:50;6.47;;;1.20;;
19585;SDS011;9939;49.246;9.106;2022-10-22T03:49:16;3.33;;;1.20;;
19585;SDS011;9939;49.246;9.106;2022-10-22T03:51:43;3.30;;;1.00;;
19585;SDS011;9939;49.246;9.106;2022-10-22T03:54:10;4.63;;;1.20;;
19585;SDS011;9939;49.246;9.106;2022-10-22T03:56:37;1.77;;;0.80;;
19585;SDS011;9939;49.246;9.106;2022-10-22T03:59:05;3.80;;;1.03;;
19585;SDS011;9939;49.246;9.106;2022-10-22T04:01:32;3.73;;;1.40;;
19585;SDS011;9939;49.246;9.106;2022-10-22T04:03:59;8.53;;;1.70;;
19585;SDS011;9939;49.246;9.106;2022-10-22T04:06:27;2.23;;;1.60;;
19585;SDS011;9939;49.246;9.106;2022-10-22T04:08:55;4.53;;;1.53;;
19585;SDS011;9939;49.246;9.106;2022-10-22T04:11:22;3.20;;;1.30;;
19585;SDS011;9939;49.246;9.106;2022-10-22T04:13:49;4.03;;;1.37;;
19585;SDS011;9939;49.246;9.106;2022-10-22T04:16:18;8.43;;;1.60;;
19585;SDS011;9939;49.246;9.106;2022-10-22T04:18:47;2.43;;;1.43;;
19585;SDS011;9939;49.246;9.106;2022-10-22T04:21:16;5.63;;;1.17;;
19585;SDS011;9939;49.246;9.106;2022-10-22T04:23:45;5.77;;;1.43;;
19585;SDS011;9939;49.246;9.106;2022-10-22T04:26:13;6.57;;;1.17;;
19585;SDS011;9939;49.246;9.106;2022-10-22T04:28:41;2.67;;;1.10;;
19585;SDS011;9939;49.246;9.106;2022-10-22T04:31:22;2.83;;;1.10;;
19585;SDS011;9939;49.246;9.106;2022-10-22T04:33:54;4.60;;;1.17;;
19585;SDS011;9939;49.246;9.106;2022-10-22T04:36:23;7.10;;;1.40;;
19585;SDS011;9939;49.246;9.106;2022-10-22T04:38:55;3.47;;;1.10;;
19585;SDS011;9939;49.246;9.106;2022-10-22T04:41:25;2.97;;;1.20;;
19585;SDS011;9939;49.246;9.106;2022-10-22T04:43:54;5.83;;;1.40;;
19585;SDS011;9939;49.246;9.106;2022-10-22T04:46:22;3.37;;;1.50;;
19585;SDS011;9939;49.246;9.106;2022-10-22T04:48:50;7.97;;;1.40;;
19585;SDS011;9939;49.246;9.106;2022-10-22T04:51:18;5.17;;;1.93;;
19585;SDS011;9939;49.246;9.106;2022-10-22T04:53:46;7.23;;;1.90;;
19585;SDS011;9939;49.246;9.106;2022-10-22T04:58:45;7.00;;;1.80;;
19585;SDS011;9939;49.246;9.106;2022-10-22T05:01:24;6.90;;;1.90;;
19585;SDS011;9939;49.246;9.106;2022-10-22T05:04:05;4.40;;;2.10;;
19585;SDS011;9939;49.246;9.106;2022-10-22T05:06:34;6.43;;;2.30;;
19585;SDS011;9939;49.246;9.106;2022-10-22T05:09:03;5.13;;;2.07;;
19585;SDS011;9939;49.246;9.106;2022-10-22T05:11:33;6.97;;;2.30;;
19585;SDS011;9939;49.246;9.106;2022-10-22T05:14:02;5.57;;;2.03;;
19585;SDS011;9939;49.246;9.106;2022-10-22T05:16:31;9.97;;;2.80;;
19585;SDS011;9939;49.246;9.106;2022-10-22T05:18:59;13.20;;;3.53;;
19585;SDS011;9939;49.246;9.106;2022-10-22T05:21:27;5.67;;;2.10;;
19585;SDS011;9939;49.246;9.106;2022-10-22T05:23:55;8.20;;;2.40;;
19585;SDS011;9939;49.246;9.106;2022-10-22T05:26:24;6.13;;;2.23;;
19585;SDS011;9939;49.246;9.106;2022-10-22T05:28:52;4.43;;;2.10;;
19585;SDS011;9939;49.246;9.106;2022-10-22T05:31:19;6.77;;;2.23;;
19585;SDS011;9939;49.246;9.106;2022-10-22T05:33:47;6.83;;;2.07;;
19585;SDS011;9939;49.246;9.106;2022-10-22T05:36:15;4.07;;;2.23;;
19585;SDS011;9939;49.246;9.106;2022-10-22T05:38:45;6.80;;;2.80;;
19585;SDS011;9939;49.246;9.106;2022-10-22T05:41:13;5.73;;;2.30;;
19585;SDS011;9939;49.246;9.106;2022-10-22T05:43:48;8.80;;;3.10;;
19585;SDS011;9939;49.246;9.106;2022-10-22T05:46:16;7.17;;;2.67;;
19585;SDS011;9939;49.246;9.106;2022-10-22T05:48:52;7.53;;;2.70;;
19585;SDS011;9939;49.246;9.106;2022-10-22T05:51:21;6.90;;;3.30;;
19585;SDS011;9939;49.246;9.106;2022-10-22T05:53:51;11.53;;;3.53;;
19585;SDS011;9939;49.246;9.106;2022-10-22T05:56:20;8.60;;;3.00;;
19585;SDS011;9939;49.246;9.106;2022-10-22T05:58:47;6.73;;;3.30;;
19585;SDS011;9939;49.246;9.106;2022-10-22T06:01:30;6.43;;;3.10;;
19585;SDS011;9939;49.246;9.106;2022-10-22T06:03:59;6.00;;;3.00;;
19585;SDS011;9939;49.246;9.106;2022-10-22T06:06:35;8.57;;;3.00;;
19585;SDS011;9939;49.246;9.106;2022-10-22T06:09:32;6.23;;;3.10;;
19585;SDS011;9939;49.246;9.106;2022-10-22T06:12:06;7.00;;;3.37;;
19585;SDS011;9939;49.246;9.106;2022-10-22T06:14:36;9.97;;;4.33;;
19585;SDS011;9939;49.246;9.106;2022-10-22T06:17:03;8.53;;;3.40;;
19585;SDS011;9939;49.246;9.106;2022-10-22T06:19:30;6.30;;;3.30;;
19585;SDS011;9939;49.246;9.106;2022-10-22T06:21:57;9.73;;;3.13;;
19585;SDS011;9939;49.246;9.106;2022-10-22T06:24:24;11.83;;;3.70;;
19585;SDS011;9939;49.246;9.106;2022-10-22T06:26:51;6.50;;;2.67;;
19585;SDS011;9939;49.246;9.106;2022-10-22T06:29:18;8.07;;;3.60;;
19585;SDS011;9939;49.246;9.106;2022-10-22T06:31:45;11.17;;;3.37;;
19585;SDS011;9939;49.246;9.106;2022-10-22T06:34:12;7.40;;;3.47;;
19585;SDS011;9939;49.246;9.106;2022-10-22T06:36:40;8.93;;;3.17;;
19585;SDS011;9939;49.246;9.106;2022-10-22T06:39:09;7.43;;;2.67;;
19585;SDS011;9939;49.246;9.106;2022-10-22T06:41:38;6.07;;;3.03;;
19585;SDS011;9939;49.246;9.106;2022-10-22T06:44:05;8.47;;;3.10;;
19585;SDS011;9939;49.246;9.106;2022-10-22T06:46:32;5.40;;;2.87;;
19585;SDS011;9939;49.246;9.106;2022-10-22T06:49:00;6.50;;;2.80;;
19585;SDS011;9939;49.246;9.106;2022-10-22T06:51:28;7.10;;;2.60;;
19585;SDS011;9939;49.246;9.106;2022-10-22T06:53:55;5.53;;;2.83;;
19585;SDS011;9939;49.246;9.106;2022-10-22T06:56:24;8.73;;;3.20;;
19585;SDS011;9939;49.246;9.106;2022-10-22T06:58:53;6.60;;;3.00;;
19585;SDS011;9939;49.246;9.106;2022-10-22T07:01:25;9.23;;;4.67;;
19585;SDS011;9939;49.246;9.106;2022-10-22T07:03:54;7.13;;;3.93;;
19585;SDS011;9939;49.246;9.106;2022-10-22T07:06:22;6.77;;;3.40;;
19585;SDS011;9939;49.246;9.106;2022-10-22T07:08:50;6.77;;;2.73;;
19585;SDS011;9939;49.246;9.106;2022-10-22T07:11:19;8.27;;;1.90;;
19585;SDS011;9939;49.246;9.106;2022-10-22T07:13:49;7.60;;;1.40;;
19585;SDS011;9939;49.246;9.106;2022-10-22T07:16:17;2.93;;;1.30;;
19585;SDS011;9939;49.246;9.106;2022-10-22T07:18:44;5.97;;;1.50;;
19585;SDS011;9939;49.246;9.106;2022-10-22T07:21:12;3.73;;;2.17;;
19585;SDS011;9939;49.246;9.106;2022-10-22T07:23:41;4.27;;;1.83;;
19585;SDS011;9939;49.246;9.106;2022-10-22T07:26:08;4.80;;;1.87;;
19585;SDS011;9939;49.246;9.106;2022-10-22T07:28:38;4.83;;;2.27;;
19585;SDS011;9939;49.246;9.106;2022-10-22T07:31:07;6.57;;;2.13;;
19585;SDS011;9939;49.246;9.106;2022-10-22T07:33:35;5.07;;;2.20;;
19585;SDS011;9939;49.246;9.106;2022-10-22T07:36:04;4.40;;;2.20;;
19585;SDS011;9939;49.246;9.106;2022-10-22T07:38:34;8.70;;;2.50;;
19585;SDS011;9939;49.246;9.106;2022-10-22T07:41:01;5.67;;;2.20;;
19585;SDS011;9939;49.246;9.106;2022-10-22T07:43:28;6.27;;;2.10;;
19585;SDS011;9939;49.246;9.106;2022-10-22T07:45:55;6.17;;;2.60;;
19585;SDS011;9939;49.246;9.106;2022-10-22T07:48:22;5.80;;;2.33;;
19585;SDS011;9939;49.246;9.106;2022-10-22T07:50:50;5.10;;;2.20;;
19585;SDS011;9939;49.246;9.106;2022-10-22T07:53:17;5.00;;;2.70;;
19585;SDS011;9939;49.246;9.106;2022-10-22T07:55:47;5.07;;;2.53;;
19585;SDS011;9939;49.246;9.106;2022-10-22T07:58:15;8.27;;;4.03;;
19585;SDS011;9939;49.246;9.106;2022-10-22T08:00:42;22.33;;;18.13;;
19585;SDS011;9939;49.246;9.106;2022-10-22T08:03:10;15.33;;;13.20;;
19585;SDS011;9939;49.246;9.106;2022-10-22T08:05:39;10.30;;;7.70;;
19585;SDS011;9939;49.246;9.106;2022-10-22T08:08:09;8.27;;;3.00;;
19585;SDS011;9939;49.246;9.106;2022-10-22T08:10:40;5.53;;;2.70;;
19585;SDS011;9939;49.246;9.106;2022-10-22T08:13:08;9.80;;;2.03;;
19585;SDS011;9939;49.246;9.106;2022-10-22T08:15:35;5.53;;;1.70;;
19585;SDS011;9939;49.246;9.106;2022-10-22T08:18:03;2.73;;;1.10;;
19585;SDS011;9939;49.246;9.106;2022-10-22T08:20:30;6.13;;;1.33;;
19585;SDS011;9939;49.246;9.106;2022-10-22T08:22:57;1.77;;;0.90;;
19585;SDS011;9939;49.246;9.106;2022-10-22T08:25:25;3.83;;;1.27;;
19585;SDS011;9939;49.246;9.106;2022-10-22T08:27:52;3.83;;;0.80;;
19585;SDS011;9939;49.246;9.106;2022-10-22T08:30:19;3.80;;;0.90;;
19585;SDS011;9939;49.246;9.106;2022-10-22T08:32:46;2.47;;;0.90;;
19585;SDS011;9939;49.246;9.106;2022-10-22T08:35:18;5.73;;;0.90;;
19585;SDS011;9939;49.246;9.106;2022-10-22T08:37:45;4.20;;;1.00;;
19585;SDS011;9939;49.246;9.106;2022-10-22T08:40:29;2.60;;;1.00;;
19585;SDS011;9939;49.246;9.106;2022-10-22T08:43:16;1.80;;;0.80;;
19585;SDS011;9939;49.246;9.106;2022-10-22T08:46:23;2.13;;;0.80;;
19585;SDS011;9939;49.246;9.106;2022-10-22T08:49:31;2.43;;;0.80;;
19585;SDS011;9939;49.246;9.106;2022-10-22T08:52:09;2.17;;;0.70;;
19585;SDS011;9939;49.246;9.106;2022-10-22T08:54:49;1.70;;;0.77;;
19585;SDS011;9939;49.246;9.106;2022-10-22T08:57:39;4.97;;;0.80;;
19585;SDS011;9939;49.246;9.106;2022-10-22T09:00:21;3.17;;;0.73;;
19585;SDS011;9939;49.246;9.106;2022-10-22T09:08:13;1.97;;;0.60;;
19585;SDS011;9939;49.246;9.106;2022-10-22T09:10:45;3.87;;;1.00;;
19585;SDS011;9939;49.246;9.106;2022-10-22T09:13:19;1.07;;;0.50;;
19585;SDS011;9939;49.246;9.106;2022-10-22T09:15:55;1.63;;;0.80;;
19585;SDS011;9939;49.246;9.106;2022-10-22T09:18:35;1.43;;;0.60;;
19585;SDS011;9939;49.246;9.106;2022-10-22T09:21:19;3.33;;;0.80;;
19585;SDS011;9939;49.246;9.106;2022-10-22T09:26:41;2.40;;;0.70;;
19585;SDS011;9939;49.246;9.106;2022-10-22T09:29:20;4.70;;;0.70;;
19585;SDS011;9939;49.246;9.106;2022-10-22T09:31:50;2.30;;;0.70;;
19585;SDS011;9939;49.246;9.106;2022-10-22T09:34:20;2.23;;;0.80;;
19585;SDS011;9939;49.246;9.106;2022-10-22T16:23:13;12.65;;;3.50;;
19585;SDS011;9939;49.246;9.106;2022-10-22T16:38:09;7.85;;;5.05;;
